Terminal Aerodrome Forecast
Issued by NWS Jackson, MS

Home | Current Version | Previous Version | Text Only | Print | Product List | Glossary On
Versions: 1 2 3 4 5 6 7 8 9 10 11 12 13 14 15 16 17 18 19
000
FTUS44 KMEG 251131
TAFTUP
TAF
KTUP 251131Z 2512/2612 02007KT P6SM VCSH FEW090 BKN120
     FM251800 02010KT P6SM SCT120 BKN250
     FM260100 VRB03KT P6SM FEW120 SCT250=

USA.gov is the U.S. government's official web portal to all federal, state and local government web resources and services.